Volokolamsk, Russia
Current Conditions -  °F | °C
As of 10:00 AM on Friday 28 Nov 2014 (Local Time) from UUEE Reporting Station
Haze Haze  
Wind Chill:   Ceiling: 10000
Heat Index: 14°   Visibility: 3mi
Dew Point: 12°   Wind: 9mph
Humidity: 93%   Direction: 80°E
Pressure: 30.56"   Gusts: NA
Location:  56.03°N, 35.97°E
Report Text: UUEE 280700Z 08004MPS 5000 BR BKN100 M10/M11 Q1035 0741015757410157 NOSIG
Loading
Personal Weather Stations






























Interactive Weather Map New forecast layout! Learn more

10-Day Weather Forecast

Advertisements
Track Severe Weather on mobile